nws-alerts: Checking more than four warning/county codes can delay the loading of your pages. You should use a cron job to get the data.

Nearby METAR Reports

 

KOXC - Oxford/Waterbury, Connecticut, USA
Distance from station: NW 7mi, 11km
Updated: 04/10/2020 7:51am
Mostly cloudy
Mostly cloudy
 Wind from W
Wind: W 12 mph , 19 km/h, Gust: 23 mph , 37 km/h
Temperature: 37°F , 3°C
Wind Chill: 29°F , -2°C
Dew Point: 25°F , -4°C
Humidity: 60%
Barometer: 29.27 inHg , 991.2 hPa
Clouds: Mostly cloudy
Visibility: 10 miles , 16 km
Cloud details: Few Clouds 3600 ft
Mostly cloudy 5500 ft
2020/04/10 11:51 KOXC 101151Z 27010G20KT 10SM FEW036 BKN055 03/M04 A2927 RMK AO2 SLP929 70029 T00331039 10039 20022 53004
KHVN - New Haven/Tweed, Connecticut, USA
Distance from station: SE 13mi, 20km
Updated: 04/10/2020 7:53am
Few Clouds
Few Clouds
 Wind from W
Wind: W 12 mph , 19 km/h, Gust: 21 mph , 33 km/h
Temperature: 43°F , 6°C
Wind Chill: 37°F , 3°C
Dew Point: 27°F , -3°C
Humidity: 53%
Barometer: 29.29 inHg , 991.9 hPa
Clouds: Few Clouds
Visibility: 10 miles , 16 km
Cloud details: Few Clouds 5000 ft
2020/04/10 11:53 KHVN 101153Z 26010G18KT 10SM FEW050 06/M03 A2929 RMK AO2 SLP919 70077 T00611028 10072 20056 53007
 
KMMK - Meriden, Connecticut, USA
Distance from station: NE 13mi, 21km
Updated: 04/10/2020 7:53am
Clear
Clear
 Wind from WSW
Wind: WSW 8 mph , 13 km/h, Gust: 20 mph , 31 km/h
Temperature: 41°F , 5°C
Wind Chill: 36°F , 2°C
Dew Point: 25°F , -4°C
Humidity: 53%
Barometer: 29.28 inHg , 991.5 hPa
Clouds: Clear
Visibility: 10 miles , 16 km
2020/04/10 11:53 KMMK 101153Z AUTO 25007G17KT 200V300 10SM CLR 05/M04 A2928 RMK AO2 SLP916 70048 T00501039 10050 20028 53006
KBDR - Bridgeport, Connecticut, USA
Distance from station: SSW 17mi, 27km
Updated: 04/10/2020 8:52am
Few Clouds
Few Clouds
 Wind from W
Wind: W 22 mph , 35 km/h, Gust: 32 mph , 52 km/h
Temperature: 45°F , 7°C
Wind Chill: 37°F , 3°C
Dew Point: 25°F , -4°C
Humidity: 46%
Barometer: 29.30 inHg , 992.2 hPa
Clouds: Few Clouds
Visibility: 10 miles , 16 km
Cloud details: Few Clouds 4900 ft
2020/04/10 12:52 KBDR 101252Z 27019G28KT 10SM FEW049 07/M04 A2930 RMK AO2 PK WND 27034/1216 SLP923 T00671044
 
KDXR - Danbury, Connecticut, USA
Distance from station: W 23mi, 38km
Updated: 04/10/2020 7:53am
Few Clouds
Few Clouds
 Wind from W
Wind: W 15 mph , 24 km/h, Gust: 23 mph , 37 km/h
Temperature: 37°F , 3°C
Wind Chill: 28°F , -2°C
Dew Point: 23°F , -5°C
Humidity: 56%
Barometer: 29.31 inHg , 992.5 hPa
Clouds: Few Clouds
Visibility: 10 miles , 16 km
Cloud details: Few Clouds 4300 ft
Few Clouds 5500 ft
2020/04/10 11:53 KDXR 101153Z 26013G20KT 10SM FEW043 FEW055 03/M05 A2931 RMK AO2 SLP926 70019 T00331050 10050 20028 53001